sensor_id;sensor_type;location;lat;lon;timestamp;pressure;altitude;pressure_sealevel;temperature;humidity
77572;BME280;67214;47.454;18.966;2023-04-01T00:02:17;98852.89;;;8.51;83.90
77572;BME280;67214;47.454;18.966;2023-04-01T00:04:45;98863.46;;;8.51;83.94
77572;BME280;67214;47.454;18.966;2023-04-01T00:07:12;98861.92;;;8.48;83.70
77572;BME280;67214;47.454;18.966;2023-04-01T00:09:40;98867.91;;;8.50;83.59
77572;BME280;67214;47.454;18.966;2023-04-01T00:12:07;98864.56;;;8.48;83.70
77572;BME280;67214;47.454;18.966;2023-04-01T00:14:34;98872.48;;;8.48;83.86
77572;BME280;67214;47.454;18.966;2023-04-01T00:17:03;98860.70;;;8.43;83.96
77572;BME280;67214;47.454;18.966;2023-04-01T00:19:31;98857.34;;;8.40;84.08
77572;BME280;67214;47.454;18.966;2023-04-01T00:21:59;98859.63;;;8.39;84.41
77572;BME280;67214;47.454;18.966;2023-04-01T00:24:26;98873.55;;;8.42;84.43
77572;BME280;67214;47.454;18.966;2023-04-01T00:26:54;98862.44;;;8.38;84.53
77572;BME280;67214;47.454;18.966;2023-04-01T00:29:21;98864.38;;;8.36;84.65
77572;BME280;67214;47.454;18.966;2023-04-01T00:31:50;98862.92;;;8.37;84.84
77572;BME280;67214;47.454;18.966;2023-04-01T00:34:17;98853.87;;;8.40;84.83
77572;BME280;67214;47.454;18.966;2023-04-01T00:36:45;98854.52;;;8.38;85.00
77572;BME280;67214;47.454;18.966;2023-04-01T00:39:12;98852.48;;;8.36;85.06
77572;BME280;67214;47.454;18.966;2023-04-01T00:41:39;98854.80;;;8.35;85.19
77572;BME280;67214;47.454;18.966;2023-04-01T00:44:21;98843.53;;;8.33;85.39
77572;BME280;67214;47.454;18.966;2023-04-01T00:46:50;98843.17;;;8.32;85.43
77572;BME280;67214;47.454;18.966;2023-04-01T00:49:21;98845.62;;;8.29;85.51
77572;BME280;67214;47.454;18.966;2023-04-01T00:51:52;98837.96;;;8.26;85.58
77572;BME280;67214;47.454;18.966;2023-04-01T00:54:21;98838.57;;;8.24;85.60
77572;BME280;67214;47.454;18.966;2023-04-01T00:56:55;98840.05;;;8.23;85.67
77572;BME280;67214;47.454;18.966;2023-04-01T00:59:31;98835.45;;;8.25;85.70
77572;BME280;67214;47.454;18.966;2023-04-01T01:01:54;98841.56;;;8.25;85.69
77572;BME280;67214;47.454;18.966;2023-04-01T01:04:29;98842.41;;;8.26;85.65
77572;BME280;67214;47.454;18.966;2023-04-01T01:07:20;98846.84;;;8.25;85.66
77572;BME280;67214;47.454;18.966;2023-04-01T01:10:15;98840.44;;;8.28;85.58
77572;BME280;67214;47.454;18.966;2023-04-01T01:15:41;98844.84;;;8.33;85.52
77572;BME280;67214;47.454;18.966;2023-04-01T01:18:32;98848.14;;;8.31;85.54
77572;BME280;67214;47.454;18.966;2023-04-01T01:21:27;98851.45;;;8.33;85.51
77572;BME280;67214;47.454;18.966;2023-04-01T01:29:11;98834.48;;;8.35;85.52
77572;BME280;67214;47.454;18.966;2023-04-01T01:34:40;98837.12;;;8.35;85.58
77572;BME280;67214;47.454;18.966;2023-04-01T01:37:13;98842.34;;;8.31;85.72
77572;BME280;67214;47.454;18.966;2023-04-01T01:39:36;98831.45;;;8.30;85.85
77572;BME280;67214;47.454;18.966;2023-04-01T01:42:07;98819.81;;;8.37;85.57
77572;BME280;67214;47.454;18.966;2023-04-01T01:44:36;98826.42;;;8.37;85.52
77572;BME280;67214;47.454;18.966;2023-04-01T01:47:05;98830.97;;;8.31;85.73
77572;BME280;67214;47.454;18.966;2023-04-01T01:49:34;98831.45;;;8.30;85.83
77572;BME280;67214;47.454;18.966;2023-04-01T01:52:03;98832.84;;;8.34;85.82
77572;BME280;67214;47.454;18.966;2023-04-01T01:54:31;98827.69;;;8.33;85.79
77572;BME280;67214;47.454;18.966;2023-04-01T01:57:08;98835.25;;;8.32;85.80
77572;BME280;67214;47.454;18.966;2023-04-01T01:59:34;98828.23;;;8.36;85.71
77572;BME280;67214;47.454;18.966;2023-04-01T02:02:02;98833.45;;;8.32;85.51
77572;BME280;67214;47.454;18.966;2023-04-01T02:04:32;98823.11;;;8.35;85.17
77572;BME280;67214;47.454;18.966;2023-04-01T02:07:03;98823.42;;;8.36;84.93
77572;BME280;67214;47.454;18.966;2023-04-01T02:09:31;98828.55;;;8.28;85.32
77572;BME280;67214;47.454;18.966;2023-04-01T02:12:06;98828.52;;;8.33;85.21
77572;BME280;67214;47.454;18.966;2023-04-01T02:14:50;98824.69;;;8.32;85.14
77572;BME280;67214;47.454;18.966;2023-04-01T02:17:18;98827.69;;;8.33;84.80
77572;BME280;67214;47.454;18.966;2023-04-01T02:20:05;98820.05;;;8.30;84.67
77572;BME280;67214;47.454;18.966;2023-04-01T02:22:42;98818.28;;;8.25;84.70
77572;BME280;67214;47.454;18.966;2023-04-01T02:25:13;98809.63;;;8.19;85.01
77572;BME280;67214;47.454;18.966;2023-04-01T02:27:42;98810.65;;;8.22;84.95
77572;BME280;67214;47.454;18.966;2023-04-01T02:30:12;98803.83;;;8.19;84.95
77572;BME280;67214;47.454;18.966;2023-04-01T02:32:40;98799.31;;;8.16;84.93
77572;BME280;67214;47.454;18.966;2023-04-01T02:35:11;98795.03;;;8.15;84.82
77572;BME280;67214;47.454;18.966;2023-04-01T02:37:40;98808.84;;;8.13;84.74
77572;BME280;67214;47.454;18.966;2023-04-01T02:40:15;98802.47;;;8.06;84.88
77572;BME280;67214;47.454;18.966;2023-04-01T02:42:43;98802.77;;;8.03;84.94
77572;BME280;67214;47.454;18.966;2023-04-01T02:45:11;98807.98;;;7.99;85.07
77572;BME280;67214;47.454;18.966;2023-04-01T02:47:39;98806.72;;;7.93;85.13
77572;BME280;67214;47.454;18.966;2023-04-01T02:50:07;98803.17;;;7.88;85.19
77572;BME280;67214;47.454;18.966;2023-04-01T02:52:36;98799.70;;;7.88;85.19
77572;BME280;67214;47.454;18.966;2023-04-01T02:55:04;98811.67;;;7.82;85.24
77572;BME280;67214;47.454;18.966;2023-04-01T02:57:32;98816.59;;;7.81;85.34
77572;BME280;67214;47.454;18.966;2023-04-01T02:59:59;98821.58;;;7.84;85.29
77572;BME280;67214;47.454;18.966;2023-04-01T03:02:27;98805.63;;;7.86;85.24
77572;BME280;67214;47.454;18.966;2023-04-01T03:04:54;98812.54;;;7.87;85.30
77572;BME280;67214;47.454;18.966;2023-04-01T03:07:22;98816.86;;;7.88;85.32
77572;BME280;67214;47.454;18.966;2023-04-01T03:09:49;98820.20;;;7.90;85.26
77572;BME280;67214;47.454;18.966;2023-04-01T03:12:17;98814.16;;;7.93;85.06
77572;BME280;67214;47.454;18.966;2023-04-01T03:14:44;98810.97;;;7.90;85.04
77572;BME280;67214;47.454;18.966;2023-04-01T03:17:11;98802.75;;;7.83;85.08
77572;BME280;67214;47.454;18.966;2023-04-01T03:19:39;98806.93;;;7.76;85.19
77572;BME280;67214;47.454;18.966;2023-04-01T03:22:07;98808.72;;;7.66;85.29
77572;BME280;67214;47.454;18.966;2023-04-01T03:24:35;98811.73;;;7.58;85.48
77572;BME280;67214;47.454;18.966;2023-04-01T03:27:02;98821.02;;;7.52;85.79
77572;BME280;67214;47.454;18.966;2023-04-01T03:29:30;98821.70;;;7.44;85.79
77572;BME280;67214;47.454;18.966;2023-04-01T03:31:57;98825.86;;;7.37;85.89
77572;BME280;67214;47.454;18.966;2023-04-01T03:34:25;98824.19;;;7.36;86.18
77572;BME280;67214;47.454;18.966;2023-04-01T03:36:53;98832.78;;;7.29;85.93
77572;BME280;67214;47.454;18.966;2023-04-01T03:39:20;98832.95;;;7.22;85.94
77572;BME280;67214;47.454;18.966;2023-04-01T03:41:48;98836.97;;;7.16;86.09
77572;BME280;67214;47.454;18.966;2023-04-01T03:44:16;98838.69;;;7.12;86.14
77572;BME280;67214;47.454;18.966;2023-04-01T03:46:44;98843.40;;;7.08;86.20
77572;BME280;67214;47.454;18.966;2023-04-01T03:49:11;98846.08;;;7.03;86.10
77572;BME280;67214;47.454;18.966;2023-04-01T03:51:40;98849.26;;;6.96;86.22
77572;BME280;67214;47.454;18.966;2023-04-01T03:54:08;98849.17;;;6.92;86.36
77572;BME280;67214;47.454;18.966;2023-04-01T03:56:36;98850.73;;;6.89;86.46
77572;BME280;67214;47.454;18.966;2023-04-01T03:59:07;98848.73;;;6.87;86.52
77572;BME280;67214;47.454;18.966;2023-04-01T04:01:34;98850.05;;;6.87;86.84
77572;BME280;67214;47.454;18.966;2023-04-01T04:04:02;98846.01;;;6.83;86.85
77572;BME280;67214;47.454;18.966;2023-04-01T04:06:30;98854.51;;;6.81;86.94
77572;BME280;67214;47.454;18.966;2023-04-01T04:08:58;98854.19;;;6.80;87.03
77572;BME280;67214;47.454;18.966;2023-04-01T04:11:25;98852.14;;;6.78;87.06
77572;BME280;67214;47.454;18.966;2023-04-01T04:13:53;98844.52;;;6.75;87.12
77572;BME280;67214;47.454;18.966;2023-04-01T04:16:20;98847.15;;;6.75;87.13
77572;BME280;67214;47.454;18.966;2023-04-01T04:18:48;98848.23;;;6.73;87.17
77572;BME280;67214;47.454;18.966;2023-04-01T04:21:17;98847.15;;;6.75;87.29
77572;BME280;67214;47.454;18.966;2023-04-01T04:23:44;98851.19;;;6.79;87.40
77572;BME280;67214;47.454;18.966;2023-04-01T04:26:14;98848.20;;;6.78;87.30
77572;BME280;67214;47.454;18.966;2023-04-01T04:28:42;98847.51;;;6.76;87.21
77572;BME280;67214;47.454;18.966;2023-04-01T04:31:09;98848.73;;;6.87;86.26
77572;BME280;67214;47.454;18.966;2023-04-01T04:33:37;98843.83;;;6.98;85.70
77572;BME280;67214;47.454;18.966;2023-04-01T04:36:05;98839.84;;;7.04;85.04
77572;BME280;67214;47.454;18.966;2023-04-01T04:38:32;98840.57;;;7.15;84.85
77572;BME280;67214;47.454;18.966;2023-04-01T04:41:00;98839.09;;;7.07;85.06
77572;BME280;67214;47.454;18.966;2023-04-01T04:43:28;98838.84;;;6.95;85.38
77572;BME280;67214;47.454;18.966;2023-04-01T04:45:55;98839.20;;;6.96;85.46
77572;BME280;67214;47.454;18.966;2023-04-01T04:48:22;98836.95;;;6.91;85.44
77572;BME280;67214;47.454;18.966;2023-04-01T04:50:51;98841.91;;;7.00;85.16
77572;BME280;67214;47.454;18.966;2023-04-01T04:53:19;98839.67;;;6.95;85.20
77572;BME280;67214;47.454;18.966;2023-04-01T04:55:48;98832.94;;;6.97;84.83
77572;BME280;67214;47.454;18.966;2023-04-01T04:58:16;98842.79;;;6.95;84.96
77572;BME280;67214;47.454;18.966;2023-04-01T05:00:45;98841.27;;;6.92;85.00
77572;BME280;67214;47.454;18.966;2023-04-01T05:03:14;98835.56;;;6.97;84.79
77572;BME280;67214;47.454;18.966;2023-04-01T05:05:51;98842.00;;;7.04;84.56
77572;BME280;67214;47.454;18.966;2023-04-01T05:08:14;98838.61;;;7.08;84.47
77572;BME280;67214;47.454;18.966;2023-04-01T05:10:42;98838.29;;;7.16;84.29
77572;BME280;67214;47.454;18.966;2023-04-01T05:13:09;98836.78;;;7.23;84.00
77572;BME280;67214;47.454;18.966;2023-04-01T05:15:37;98845.69;;;7.32;84.06
77572;BME280;67214;47.454;18.966;2023-04-01T05:18:04;98839.25;;;7.40;83.62
77572;BME280;67214;47.454;18.966;2023-04-01T05:20:32;98835.32;;;7.50;83.57
77572;BME280;67214;47.454;18.966;2023-04-01T05:23:00;98837.88;;;7.55;83.51
77572;BME280;67214;47.454;18.966;2023-04-01T05:25:27;98849.61;;;7.66;83.65
77572;BME280;67214;47.454;18.966;2023-04-01T05:27:55;98842.91;;;7.77;83.52
77572;BME280;67214;47.454;18.966;2023-04-01T05:30:22;98847.08;;;7.89;82.51
77572;BME280;67214;47.454;18.966;2023-04-01T05:32:50;98849.22;;;8.00;82.66
77572;BME280;67214;47.454;18.966;2023-04-01T05:35:17;98852.57;;;8.02;82.10
77572;BME280;67214;47.454;18.966;2023-04-01T05:37:45;98850.87;;;8.20;82.04
77572;BME280;67214;47.454;18.966;2023-04-01T05:40:12;98850.62;;;8.32;81.71
77572;BME280;67214;47.454;18.966;2023-04-01T05:42:39;98854.16;;;8.37;81.78
77572;BME280;67214;47.454;18.966;2023-04-01T05:45:07;98857.70;;;8.42;81.62
77572;BME280;67214;47.454;18.966;2023-04-01T05:47:35;98855.24;;;8.54;81.19
77572;BME280;67214;47.454;18.966;2023-04-01T05:50:02;98855.49;;;8.60;81.23
77572;BME280;67214;47.454;18.966;2023-04-01T05:52:30;98852.59;;;8.63;81.28
77572;BME280;67214;47.454;18.966;2023-04-01T05:54:57;98841.08;;;8.68;80.94
77572;BME280;67214;47.454;18.966;2023-04-01T05:57:26;98848.02;;;8.79;80.09
77572;BME280;67214;47.454;18.966;2023-04-01T05:59:54;98852.55;;;8.96;80.06
77572;BME280;67214;47.454;18.966;2023-04-01T06:02:21;98850.69;;;9.06;79.35
77572;BME280;67214;47.454;18.966;2023-04-01T06:04:50;98845.59;;;9.22;78.77
77572;BME280;67214;47.454;18.966;2023-04-01T06:07:19;98848.87;;;9.34;78.95
77572;BME280;67214;47.454;18.966;2023-04-01T06:09:46;98846.13;;;9.53;78.32
77572;BME280;67214;47.454;18.966;2023-04-01T06:17:34;98836.06;;;9.74;75.85
77572;BME280;67214;47.454;18.966;2023-04-01T06:25:48;98830.78;;;9.92;73.53
77572;BME280;67214;47.454;18.966;2023-04-01T06:34:15;98837.20;;;10.07;73.67
77572;BME280;67214;47.454;18.966;2023-04-01T06:39:55;98847.42;;;10.38;73.14
77572;BME280;67214;47.454;18.966;2023-04-01T06:47:45;98849.36;;;10.53;71.98
77572;BME280;67214;47.454;18.966;2023-04-01T06:50:30;98852.52;;;10.57;71.82
77572;BME280;67214;47.454;18.966;2023-04-01T06:55:59;98853.32;;;10.75;70.81
77572;BME280;67214;47.454;18.966;2023-04-01T06:58:35;98862.94;;;10.80;70.22
77572;BME280;67214;47.454;18.966;2023-04-01T07:01:06;98856.81;;;10.76;69.42
77572;BME280;67214;47.454;18.966;2023-04-01T07:06:06;98853.70;;;10.88;69.31
77572;BME280;67214;47.454;18.966;2023-04-01T07:08:36;98840.66;;;10.95;69.18
77572;BME280;67214;47.454;18.966;2023-04-01T07:11:09;98848.98;;;11.00;68.72
77572;BME280;67214;47.454;18.966;2023-04-01T07:13:49;98845.54;;;11.07;68.47
77572;BME280;67214;47.454;18.966;2023-04-01T07:22:01;98846.17;;;11.43;67.60
77572;BME280;67214;47.454;18.966;2023-04-01T07:24:36;98852.70;;;11.57;67.24
77572;BME280;67214;47.454;18.966;2023-04-01T07:27:05;98849.05;;;11.70;66.41
77572;BME280;67214;47.454;18.966;2023-04-01T07:29:33;98850.27;;;11.76;66.92
77572;BME280;67214;47.454;18.966;2023-04-01T07:40:51;98842.53;;;12.39;65.11
77572;BME280;67214;47.454;18.966;2023-04-01T07:48:33;98843.03;;;12.22;61.93
77572;BME280;67214;47.454;18.966;2023-04-01T07:51:07;98839.87;;;12.47;62.21
77572;BME280;67214;47.454;18.966;2023-04-01T07:56:23;98839.31;;;12.64;60.13
77572;BME280;67214;47.454;18.966;2023-04-01T08:07:36;98857.13;;;12.71;58.92
77572;BME280;67214;47.454;18.966;2023-04-01T08:15:45;98853.97;;;12.47;59.58
77572;BME280;67214;47.454;18.966;2023-04-01T08:18:38;98853.97;;;12.31;60.48
77572;BME280;67214;47.454;18.966;2023-04-01T08:21:10;98861.44;;;12.52;59.88
77572;BME280;67214;47.454;18.966;2023-04-01T08:23:41;98857.14;;;12.59;59.86
77572;BME280;67214;47.454;18.966;2023-04-01T08:29:14;98841.68;;;12.54;59.95
77572;BME280;67214;47.454;18.966;2023-04-01T08:34:14;98846.98;;;12.67;59.03
77572;BME280;67214;47.454;18.966;2023-04-01T08:36:45;98854.13;;;12.62;58.91
77572;BME280;67214;47.454;18.966;2023-04-01T08:39:29;98854.64;;;12.49;60.53
77572;BME280;67214;47.454;18.966;2023-04-01T08:42:07;98860.43;;;12.69;58.63
77572;BME280;67214;47.454;18.966;2023-04-01T08:47:55;98852.56;;;12.88;58.34
77572;BME280;67214;47.454;18.966;2023-04-01T08:50:36;98857.08;;;12.91;59.10
77572;BME280;67214;47.454;18.966;2023-04-01T08:53:25;98866.05;;;12.90;59.02
77572;BME280;67214;47.454;18.966;2023-04-01T09:04:22;98856.70;;;13.07;59.94
77572;BME280;67214;47.454;18.966;2023-04-01T09:15:28;98857.42;;;13.43;58.32
77572;BME280;67214;47.454;18.966;2023-04-01T09:18:02;98854.14;;;13.29;57.44
77572;BME280;67214;47.454;18.966;2023-04-01T09:32:11;98852.08;;;12.84;58.98
77572;BME280;67214;47.454;18.966;2023-04-01T09:37:18;98847.45;;;12.78;59.90
77572;BME280;67214;47.454;18.966;2023-04-01T09:40:14;98848.77;;;12.86;60.12
77572;BME280;67214;47.454;18.966;2023-04-01T09:42:49;98855.58;;;12.85;59.78
77572;BME280;67214;47.454;18.966;2023-04-01T09:45:28;98850.30;;;12.65;58.74
77572;BME280;67214;47.454;18.966;2023-04-01T09:48:26;98850.31;;;12.52;59.53
77572;BME280;67214;47.454;18.966;2023-04-01T09:51:06;98845.16;;;12.63;58.93
77572;BME280;67214;47.454;18.966;2023-04-01T09:53:47;98852.32;;;12.54;59.32
77572;BME280;67214;47.454;18.966;2023-04-01T10:05:32;98866.59;;;12.66;58.85
77572;BME280;67214;47.454;18.966;2023-04-01T10:22:16;98857.92;;;12.68;58.05
77572;BME280;67214;47.454;18.966;2023-04-01T10:36:21;98859.17;;;13.24;57.62
77572;BME280;67214;47.454;18.966;2023-04-01T10:38:56;98848.73;;;13.45;57.12
77572;BME280;67214;47.454;18.966;2023-04-01T10:44:26;98868.71;;;13.45;56.48
77572;BME280;67214;47.454;18.966;2023-04-01T10:58:40;98848.81;;;13.91;55.05
77572;BME280;67214;47.454;18.966;2023-04-01T11:09:56;98822.81;;;14.16;54.04
77572;BME280;67214;47.454;18.966;2023-04-01T11:24:08;98841.30;;;14.92;51.70
77572;BME280;67214;47.454;18.966;2023-04-01T11:27:03;98842.66;;;14.59;52.13
77572;BME280;67214;47.454;18.966;2023-04-01T11:29:36;98833.66;;;14.74;51.56
77572;BME280;67214;47.454;18.966;2023-04-01T11:32:14;98834.09;;;14.63;51.73
77572;BME280;67214;47.454;18.966;2023-04-01T11:34:47;98841.13;;;14.79;50.61
77572;BME280;67214;47.454;18.966;2023-04-01T11:40:27;98838.22;;;14.84;51.34
77572;BME280;67214;47.454;18.966;2023-04-01T11:45:50;98847.84;;;15.04;51.26
77572;BME280;67214;47.454;18.966;2023-04-01T11:48:25;98837.36;;;15.32;49.20
77572;BME280;67214;47.454;18.966;2023-04-01T11:51:36;98843.25;;;14.98;50.97
77572;BME280;67214;47.454;18.966;2023-04-01T12:04:51;98855.19;;;14.35;50.33
77572;BME280;67214;47.454;18.966;2023-04-01T12:13:30;98844.63;;;14.61;51.49
77572;BME280;67214;47.454;18.966;2023-04-01T12:16:15;98860.69;;;14.90;50.54
77572;BME280;67214;47.454;18.966;2023-04-01T12:19:04;98845.77;;;15.25;50.56
77572;BME280;67214;47.454;18.966;2023-04-01T12:21:38;98832.09;;;15.49;49.48
77572;BME280;67214;47.454;18.966;2023-04-01T12:35:29;98848.04;;;15.32;50.50
77572;BME280;67214;47.454;18.966;2023-04-01T12:38:22;98857.69;;;15.48;49.75
77572;BME280;67214;47.454;18.966;2023-04-01T12:44:06;98842.72;;;15.43;48.93
77572;BME280;67214;47.454;18.966;2023-04-01T12:55:01;98843.00;;;15.48;49.96
77572;BME280;67214;47.454;18.966;2023-04-01T12:57:45;98842.27;;;15.24;49.37
77572;BME280;67214;47.454;18.966;2023-04-01T13:00:24;98845.34;;;15.47;49.64
77572;BME280;67214;47.454;18.966;2023-04-01T13:08:20;98835.02;;;16.86;47.08
77572;BME280;67214;47.454;18.966;2023-04-01T13:11:09;98819.97;;;16.36;46.91
77572;BME280;67214;47.454;18.966;2023-04-01T13:13:55;98818.38;;;16.41;46.22
77572;BME280;67214;47.454;18.966;2023-04-01T13:16:24;98827.33;;;16.55;46.26
77572;BME280;67214;47.454;18.966;2023-04-01T13:24:29;98839.16;;;16.07;47.28
77572;BME280;67214;47.454;18.966;2023-04-01T13:27:28;98842.58;;;15.91;48.69
77572;BME280;67214;47.454;18.966;2023-04-01T13:32:50;98841.46;;;15.24;49.07
77572;BME280;67214;47.454;18.966;2023-04-01T13:35:40;98842.05;;;14.86;50.35
77572;BME280;67214;47.454;18.966;2023-04-01T13:46:34;98852.30;;;14.60;51.26
77572;BME280;67214;47.454;18.966;2023-04-01T13:49:24;98848.08;;;14.51;50.91
77572;BME280;67214;47.454;18.966;2023-04-01T13:54:55;98855.02;;;14.33;52.11
77572;BME280;67214;47.454;18.966;2023-04-01T14:03:28;98887.69;;;13.46;55.75
77572;BME280;67214;47.454;18.966;2023-04-01T14:12:22;98883.22;;;12.51;61.26
77572;BME280;67214;47.454;18.966;2023-04-01T14:20:15;98844.00;;;12.53;58.80
77572;BME280;67214;47.454;18.966;2023-04-01T14:22:48;98850.31;;;12.52;57.99
77572;BME280;67214;47.454;18.966;2023-04-01T14:31:13;98850.78;;;12.72;58.29
77572;BME280;67214;47.454;18.966;2023-04-01T14:36:35;98842.46;;;12.83;56.37
77572;BME280;67214;47.454;18.966;2023-04-01T14:49:54;98835.84;;;13.65;54.21
77572;BME280;67214;47.454;18.966;2023-04-01T14:52:25;98833.52;;;13.89;53.99
77572;BME280;67214;47.454;18.966;2023-04-01T14:54:53;98842.46;;;13.96;53.81
77572;BME280;67214;47.454;18.966;2023-04-01T14:57:26;98842.87;;;14.08;53.77
77572;BME280;67214;47.454;18.966;2023-04-01T15:00:15;98838.77;;;14.47;53.45
77572;BME280;67214;47.454;18.966;2023-04-01T15:05:48;98837.42;;;14.80;51.85
77572;BME280;67214;47.454;18.966;2023-04-01T15:08:22;98839.05;;;14.85;53.15
77572;BME280;67214;47.454;18.966;2023-04-01T15:16:34;98843.69;;;15.16;52.45
77572;BME280;67214;47.454;18.966;2023-04-01T15:20:04;98838.88;;;15.01;52.13
77572;BME280;67214;47.454;18.966;2023-04-01T15:22:02;98847.47;;;14.93;53.15
77572;BME280;67214;47.454;18.966;2023-04-01T15:24:35;98836.72;;;15.15;51.11
77572;BME280;67214;47.454;18.966;2023-04-01T15:27:21;98841.86;;;15.17;50.91
77572;BME280;67214;47.454;18.966;2023-04-01T15:35:21;98843.62;;;15.10;49.18
77572;BME280;67214;47.454;18.966;2023-04-01T15:41:16;98852.65;;;15.23;47.16
77572;BME280;67214;47.454;18.966;2023-04-01T15:43:47;98853.66;;;15.22;46.71
77572;BME280;67214;47.454;18.966;2023-04-01T15:46:28;98847.98;;;15.36;46.86
77572;BME280;67214;47.454;18.966;2023-04-01T15:49:08;98853.08;;;15.42;46.69
77572;BME280;67214;47.454;18.966;2023-04-01T15:51:56;98863.19;;;15.35;45.67
77572;BME280;67214;47.454;18.966;2023-04-01T16:00:21;98854.73;;;15.57;45.89
77572;BME280;67214;47.454;18.966;2023-04-01T16:06:11;98862.25;;;15.43;45.36
77572;BME280;67214;47.454;18.966;2023-04-01T16:09:02;98868.11;;;15.13;46.11
77572;BME280;67214;47.454;18.966;2023-04-01T16:14:07;98859.92;;;15.15;46.57
77572;BME280;67214;47.454;18.966;2023-04-01T16:19:33;98868.22;;;15.20;46.29
77572;BME280;67214;47.454;18.966;2023-04-01T16:24:34;98872.74;;;14.86;47.35
77572;BME280;67214;47.454;18.966;2023-04-01T16:27:18;98872.11;;;14.65;47.82
77572;BME280;67214;47.454;18.966;2023-04-01T16:30:03;98867.56;;;14.70;48.07
77572;BME280;67214;47.454;18.966;2023-04-01T16:32:38;98877.45;;;14.65;48.64
77572;BME280;67214;47.454;18.966;2023-04-01T16:35:25;98873.29;;;14.44;48.99
77572;BME280;67214;47.454;18.966;2023-04-01T16:40:45;98876.22;;;14.30;49.26
77572;BME280;67214;47.454;18.966;2023-04-01T16:46:12;98888.45;;;14.21;48.96
77572;BME280;67214;47.454;18.966;2023-04-01T16:57:27;98895.10;;;13.94;50.31
77572;BME280;67214;47.454;18.966;2023-04-01T17:02:54;98898.70;;;13.78;49.68
77572;BME280;67214;47.454;18.966;2023-04-01T17:05:17;98904.56;;;13.70;49.38
77572;BME280;67214;47.454;18.966;2023-04-01T17:08:07;98898.45;;;13.65;49.42
77572;BME280;67214;47.454;18.966;2023-04-01T17:10:51;98912.78;;;13.60;49.86
77572;BME280;67214;47.454;18.966;2023-04-01T17:13:22;98907.99;;;13.52;49.85
77572;BME280;67214;47.454;18.966;2023-04-01T17:18:38;98910.41;;;13.22;51.14
77572;BME280;67214;47.454;18.966;2023-04-01T17:21:07;98913.26;;;13.13;51.68
77572;BME280;67214;47.454;18.966;2023-04-01T17:29:00;98930.44;;;12.62;53.90
77572;BME280;67214;47.454;18.966;2023-04-01T17:31:52;98934.76;;;12.42;55.92
77572;BME280;67214;47.454;18.966;2023-04-01T17:34:26;98934.22;;;12.27;56.01
77572;BME280;67214;47.454;18.966;2023-04-01T17:37:06;98927.06;;;12.19;54.35
77572;BME280;67214;47.454;18.966;2023-04-01T17:45:28;98946.99;;;12.15;54.49
77572;BME280;67214;47.454;18.966;2023-04-01T17:54:04;98950.77;;;11.92;56.16
77572;BME280;67214;47.454;18.966;2023-04-01T18:02:02;98964.84;;;11.81;56.55
77572;BME280;67214;47.454;18.966;2023-04-01T18:07:38;98971.69;;;11.61;57.48
77572;BME280;67214;47.454;18.966;2023-04-01T18:13:04;98972.39;;;11.38;58.52
77572;BME280;67214;47.454;18.966;2023-04-01T18:22:08;98982.50;;;11.04;60.39
77572;BME280;67214;47.454;18.966;2023-04-01T18:24:40;98992.81;;;10.90;62.56
77572;BME280;67214;47.454;18.966;2023-04-01T18:29:48;99007.61;;;10.57;63.92
77572;BME280;67214;47.454;18.966;2023-04-01T18:32:14;99014.47;;;10.46;63.07
77572;BME280;67214;47.454;18.966;2023-04-01T18:40:32;99027.83;;;10.40;62.45
77572;BME280;67214;47.454;18.966;2023-04-01T18:46:00;99037.30;;;10.60;61.87
77572;BME280;67214;47.454;18.966;2023-04-01T18:48:57;99030.91;;;10.49;62.11
77572;BME280;67214;47.454;18.966;2023-04-01T18:54:40;99034.45;;;10.40;63.11
77572;BME280;67214;47.454;18.966;2023-04-01T18:57:16;99028.84;;;10.25;63.70
77572;BME280;67214;47.454;18.966;2023-04-01T18:59:57;99027.56;;;10.16;64.23
77572;BME280;67214;47.454;18.966;2023-04-01T19:02:44;99032.55;;;10.05;64.62
77572;BME280;67214;47.454;18.966;2023-04-01T19:05:21;99031.72;;;10.05;64.67
77572;BME280;67214;47.454;18.966;2023-04-01T19:07:53;99039.52;;;9.93;65.43
77572;BME280;67214;47.454;18.966;2023-04-01T19:13:05;99038.47;;;9.76;66.17
77572;BME280;67214;47.454;18.966;2023-04-01T19:15:49;99038.50;;;9.66;66.46
77572;BME280;67214;47.454;18.966;2023-04-01T19:18:46;99040.77;;;9.61;66.50
77572;BME280;67214;47.454;18.966;2023-04-01T19:21:44;99034.91;;;9.58;66.67
77572;BME280;67214;47.454;18.966;2023-04-01T19:24:33;99028.52;;;9.51;66.98
77572;BME280;67214;47.454;18.966;2023-04-01T19:27:02;99023.53;;;9.48;67.07
77572;BME280;67214;47.454;18.966;2023-04-01T19:40:41;99043.75;;;9.39;66.93
77572;BME280;67214;47.454;18.966;2023-04-01T19:43:27;99040.61;;;9.40;66.97
77572;BME280;67214;47.454;18.966;2023-04-01T19:45:57;99035.88;;;9.33;67.05
77572;BME280;67214;47.454;18.966;2023-04-01T19:51:13;99052.27;;;9.33;67.21
77572;BME280;67214;47.454;18.966;2023-04-01T19:56:19;99051.44;;;9.32;67.27
77572;BME280;67214;47.454;18.966;2023-04-01T20:04:20;99059.50;;;9.31;67.17
77572;BME280;67214;47.454;18.966;2023-04-01T20:06:45;99060.95;;;9.29;67.30
77572;BME280;67214;47.454;18.966;2023-04-01T20:09:26;99057.83;;;9.30;67.25
77572;BME280;67214;47.454;18.966;2023-04-01T20:11:56;99061.80;;;9.30;67.25
77572;BME280;67214;47.454;18.966;2023-04-01T20:14:41;99054.50;;;9.28;67.46
77572;BME280;67214;47.454;18.966;2023-04-01T20:17:17;99054.69;;;9.30;67.39
77572;BME280;67214;47.454;18.966;2023-04-01T20:36:26;99068.25;;;8.99;69.41
77572;BME280;67214;47.454;18.966;2023-04-01T20:39:15;99067.14;;;8.92;69.52
77572;BME280;67214;47.454;18.966;2023-04-01T20:58:50;99096.18;;;8.53;71.39
77572;BME280;67214;47.454;18.966;2023-04-01T21:01:29;99094.63;;;8.41;71.91
77572;BME280;67214;47.454;18.966;2023-04-01T21:04:00;99097.31;;;8.35;72.13
77572;BME280;67214;47.454;18.966;2023-04-01T21:12:30;99107.48;;;8.30;72.49